Time,TemperatureF,DewpointF,PressureIn,WindDirection,WindDirectionDegrees,WindSpeedMPH,WindSpeedGustMPH,Humidity,HourlyPrecipIn,Conditions,Clouds,dailyrainin,SoftwareType,DateUTC
2013-03-14 00:02:00,50.0,46.0,-100.00,North,-999,0.0,0.0,87,-99.99,,,-99.99,,2013-03-14 07:02:00,
2013-03-14 00:11:00,50.0,46.0,-100.00,North,-999,0.0,0.0,87,-99.99,,,-99.99,,2013-03-14 07:11:00,
2013-03-14 00:22:00,50.0,46.0,-100.00,North,-999,0.0,0.0,87,-99.99,,,-99.99,,2013-03-14 07:22:00,
2013-03-14 00:32:00,49.0,46.0,-100.00,South,180,2.0,3.0,88,-99.99,,,-99.99,,2013-03-14 07:32:00,
2013-03-14 00:42:00,49.0,46.0,-100.00,South,180,2.0,3.0,88,-99.99,,,-99.99,,2013-03-14 07:42:00,
2013-03-14 00:52:00,48.0,45.0,-100.00,South,180,1.0,1.0,88,-99.99,,,-99.99,,2013-03-14 07:52:00,
2013-03-14 01:02:00,49.0,45.0,-100.00,SW,225,1.0,1.0,88,-99.99,,,-99.99,,2013-03-14 08:02:00,
2013-03-14 01:12:00,49.0,45.0,-100.00,SW,225,1.0,1.0,88,-99.99,,,-99.99,,2013-03-14 08:12:00,
2013-03-14 01:21:00,49.0,45.0,-100.00,SW,225,1.0,2.0,88,-99.99,,,-99.99,,2013-03-14 08:21:00,
2013-03-14 01:31:00,49.0,45.0,-100.00,SW,225,1.0,1.0,88,-99.99,,,-99.99,,2013-03-14 08:31:00,
2013-03-14 01:41:00,49.0,45.0,-100.00,SW,225,1.0,1.0,88,-99.99,,,-99.99,,2013-03-14 08:41:00,
2013-03-14 01:52:00,50.0,46.0,-100.00,SW,225,2.0,3.0,89,-99.99,,,-99.99,,2013-03-14 08:52:00,
2013-03-14 02:01:00,49.0,46.0,-100.00,SW,225,2.0,3.0,89,-99.99,,,-99.99,,2013-03-14 09:01:00,
2013-03-14 02:12:00,49.0,46.0,-100.00,SW,225,2.0,3.0,89,-99.99,,,-99.99,,2013-03-14 09:12:00,
2013-03-14 02:22:00,48.0,45.0,-100.00,South,180,1.0,1.0,89,-99.99,,,-99.99,,2013-03-14 09:22:00,
2013-03-14 02:32:00,48.0,45.0,-100.00,NE,45,1.0,1.0,89,-99.99,,,-99.99,,2013-03-14 09:32:00,
2013-03-14 02:42:00,48.0,45.0,-100.00,NE,45,1.0,1.0,89,-99.99,,,-99.99,,2013-03-14 09:42:00,
2013-03-14 02:52:00,48.0,45.0,-100.00,West,270,0.0,1.0,89,-99.99,,,-99.99,,2013-03-14 09:52:00,
2013-03-14 03:02:00,47.0,44.0,-100.00,SW,225,1.0,2.0,89,-99.99,,,-99.99,,2013-03-14 10:02:00,
2013-03-14 03:12:00,47.0,44.0,-100.00,SW,225,1.0,2.0,89,-99.99,,,-99.99,,2013-03-14 10:12:00,
2013-03-14 03:22:00,47.0,44.0,-100.00,SW,225,0.0,1.0,89,-99.99,,,-99.99,,2013-03-14 10:22:00,
2013-03-14 03:32:00,47.0,44.0,-100.00,SW,225,1.0,1.0,89,-99.99,,,-99.99,,2013-03-14 10:32:00,
2013-03-14 03:42:00,47.0,44.0,-100.00,SW,225,1.0,1.0,89,-99.99,,,-99.99,,2013-03-14 10:42:00,
2013-03-14 03:52:00,47.0,44.0,-100.00,North,-999,0.0,0.0,90,-99.99,,,-99.99,,2013-03-14 10:52:00,
2013-03-14 04:02:00,47.0,44.0,-100.00,North,-999,0.0,0.0,90,-99.99,,,-99.99,,2013-03-14 11:02:00,
2013-03-14 04:12:00,47.0,44.0,-100.00,North,-999,0.0,0.0,90,-99.99,,,-99.99,,2013-03-14 11:12:00,
2013-03-14 04:22:00,47.0,44.0,-100.00,SW,225,2.0,3.0,90,-99.99,,,-99.99,,2013-03-14 11:22:00,
2013-03-14 04:32:00,47.0,44.0,-100.00,South,180,2.0,3.0,90,-99.99,,,-99.99,,2013-03-14 11:32:00,
2013-03-14 04:42:00,47.0,44.0,-100.00,South,180,2.0,3.0,90,-99.99,,,-99.99,,2013-03-14 11:42:00,
2013-03-14 04:52:00,46.0,43.0,-100.00,South,180,2.0,3.0,90,-99.99,,,-99.99,,2013-03-14 11:52:00,
2013-03-14 05:02:00,46.0,44.0,-100.00,SW,225,1.0,3.0,90,-99.99,,,-99.99,,2013-03-14 12:02:00,
2013-03-14 05:12:00,46.0,44.0,-100.00,SW,225,1.0,3.0,90,-99.99,,,-99.99,,2013-03-14 12:12:00,
2013-03-14 05:22:00,47.0,44.0,-100.00,SW,225,3.0,3.0,90,-99.99,,,-99.99,,2013-03-14 12:22:00,
2013-03-14 05:32:00,46.0,43.0,-100.00,South,180,2.0,3.0,90,-99.99,,,-99.99,,2013-03-14 12:32:00,
2013-03-14 05:42:00,46.0,43.0,-100.00,South,180,2.0,3.0,90,-99.99,,,-99.99,,2013-03-14 12:42:00,
2013-03-14 05:52:00,48.0,45.0,-100.00,SW,225,4.0,7.0,90,-99.99,,,-99.99,,2013-03-14 12:52:00,
2013-03-14 06:02:00,48.0,45.0,-100.00,West,270,2.0,3.0,89,-99.99,,,-99.99,,2013-03-14 13:02:00,
2013-03-14 06:12:00,48.0,45.0,-100.00,West,270,2.0,3.0,89,-99.99,,,-99.99,,2013-03-14 13:12:00,
2013-03-14 06:22:00,47.0,44.0,-100.00,SW,225,2.0,3.0,89,-99.99,,,-99.99,,2013-03-14 13:22:00,
2013-03-14 06:32:00,47.0,44.0,-100.00,SW,225,2.0,3.0,88,-99.99,,,-99.99,,2013-03-14 13:32:00,
2013-03-14 06:42:00,47.0,44.0,-100.00,SW,225,2.0,3.0,88,-99.99,,,-99.99,,2013-03-14 13:42:00,
2013-03-14 06:52:00,47.0,43.0,-100.00,SW,225,4.0,4.0,88,-99.99,,,-99.99,,2013-03-14 13:52:00,
2013-03-14 07:02:00,47.0,44.0,-100.00,SW,225,4.0,4.0,88,-99.99,,,-99.99,,2013-03-14 14:02:00,
2013-03-14 07:12:00,47.0,44.0,-100.00,SW,225,4.0,4.0,88,-99.99,,,-99.99,,2013-03-14 14:12:00,
2013-03-14 07:22:00,48.0,44.0,-100.00,South,180,4.0,5.0,88,-99.99,,,-99.99,,2013-03-14 14:22:00,
2013-03-14 07:32:00,47.0,44.0,-100.00,South,180,3.0,4.0,88,-99.99,,,-99.99,,2013-03-14 14:32:00,
2013-03-14 07:42:00,47.0,44.0,-100.00,South,180,3.0,4.0,88,-99.99,,,-99.99,,2013-03-14 14:42:00,
2013-03-14 07:53:00,47.0,44.0,-100.00,South,180,4.0,4.0,88,-99.99,,,-99.99,,2013-03-14 14:53:00,
2013-03-14 08:02:00,48.0,44.0,-100.00,South,180,3.0,3.0,88,-99.99,,,-99.99,,2013-03-14 15:02:00,
2013-03-14 08:12:00,48.0,44.0,-100.00,South,180,3.0,3.0,88,-99.99,,,-99.99,,2013-03-14 15:12:00,
2013-03-14 08:22:00,48.0,44.0,-100.00,South,180,3.0,4.0,88,-99.99,,,-99.99,,2013-03-14 15:22:00,
2013-03-14 08:32:00,48.0,44.0,-100.00,South,180,3.0,4.0,88,-99.99,,,-99.99,,2013-03-14 15:32:00,
2013-03-14 08:42:00,48.0,44.0,-100.00,South,180,3.0,4.0,88,-99.99,,,-99.99,,2013-03-14 15:42:00,
2013-03-14 10:02:00,49.0,43.0,-100.00,SW,225,4.0,6.0,82,-99.99,,,-99.99,,2013-03-14 17:02:00,
2013-03-14 10:12:00,49.0,43.0,-100.00,SW,225,4.0,6.0,82,-99.99,,,-99.99,,2013-03-14 17:12:00,
2013-03-14 10:23:00,49.0,43.0,-100.00,South,180,4.0,6.0,80,-99.99,,,-99.99,,2013-03-14 17:23:00,
2013-03-14 10:32:00,51.0,43.0,-100.00,South,180,3.0,4.0,75,-99.99,,,-99.99,,2013-03-14 17:32:00,
2013-03-14 10:42:00,51.0,43.0,-100.00,South,180,3.0,4.0,75,-99.99,,,-99.99,,2013-03-14 17:42:00,
2013-03-14 10:52:00,51.0,42.0,-100.00,South,180,6.0,7.0,71,-99.99,,,-99.99,,2013-03-14 17:52:00,
2013-03-14 11:02:00,51.0,42.0,-100.00,South,180,6.0,7.0,71,-99.99,,,-99.99,,2013-03-14 18:02:00,
2013-03-14 11:12:00,51.0,42.0,-100.00,South,180,6.0,7.0,71,-99.99,,,-99.99,,2013-03-14 18:12:00,
2013-03-14 11:22:00,51.0,40.0,-100.00,SW,225,7.0,8.0,66,-99.99,,,-99.99,,2013-03-14 18:22:00,
2013-03-14 11:32:00,52.0,39.0,-100.00,South,180,8.0,10.0,62,-99.99,,,-99.99,,2013-03-14 18:32:00,
2013-03-14 11:42:00,52.0,39.0,-100.00,South,180,8.0,10.0,62,-99.99,,,-99.99,,2013-03-14 18:42:00,
2013-03-14 11:52:00,52.0,39.0,-100.00,South,180,8.0,9.0,62,-99.99,,,-99.99,,2013-03-14 18:52:00,
2013-03-14 12:02:00,53.0,39.0,-100.00,SW,225,8.0,9.0,60,-99.99,,,-99.99,,2013-03-14 19:02:00,
2013-03-14 12:22:00,53.0,39.0,-100.00,SW,225,9.0,11.0,60,-99.99,,,-99.99,,2013-03-14 19:22:00,
2013-03-14 12:32:00,53.0,39.0,-100.00,SW,225,9.0,11.0,60,-99.99,,,-99.99,,2013-03-14 19:32:00,
2013-03-14 12:42:00,53.0,39.0,-100.00,SW,225,9.0,11.0,60,-99.99,,,-99.99,,2013-03-14 19:42:00,
2013-03-14 13:32:00,57.0,39.0,-100.00,SW,225,8.0,10.0,52,-99.99,,,-99.99,,2013-03-14 20:32:00,
2013-03-14 13:42:00,57.0,39.0,-100.00,SW,225,8.0,10.0,52,-99.99,,,-99.99,,2013-03-14 20:42:00,
2013-03-14 13:52:00,56.0,37.0,-100.00,SW,225,8.0,11.0,50,-99.99,,,-99.99,,2013-03-14 20:52:00,
2013-03-14 14:02:00,55.0,35.0,-100.00,SW,225,6.0,8.0,48,-99.99,,,-99.99,,2013-03-14 21:02:00,
2013-03-14 14:22:00,55.0,35.0,-100.00,SW,225,9.0,12.0,47,-99.99,,,-99.99,,2013-03-14 21:22:00,
2013-03-14 14:32:00,56.0,35.0,-100.00,South,180,11.0,12.0,46,-99.99,,,-99.99,,2013-03-14 21:32:00,
2013-03-14 14:53:00,56.0,36.0,-100.00,SW,225,8.0,10.0,46,-99.99,,,-99.99,,2013-03-14 21:53:00,
2013-03-14 15:03:00,56.0,36.0,-100.00,SW,225,9.0,11.0,47,-99.99,,,-99.99,,2013-03-14 22:03:00,
2013-03-14 15:23:00,56.0,36.0,-100.00,SW,225,8.0,10.0,48,-99.99,,,-99.99,,2013-03-14 22:23:00,
2013-03-14 15:32:00,56.0,36.0,-100.00,South,180,6.0,6.0,47,-99.99,,,-99.99,,2013-03-14 22:32:00,
2013-03-14 15:42:00,56.0,36.0,-100.00,South,180,6.0,6.0,47,-99.99,,,-99.99,,2013-03-14 22:42:00,
2013-03-14 15:52:00,56.0,36.0,-100.00,SW,225,5.0,7.0,47,-99.99,,,-99.99,,2013-03-14 22:52:00,
2013-03-14 16:02:00,56.0,36.0,-100.00,SW,225,9.0,13.0,47,-99.99,,,-99.99,,2013-03-14 23:02:00,
2013-03-14 16:12:00,56.0,36.0,-100.00,SW,225,9.0,13.0,47,-99.99,,,-99.99,,2013-03-14 23:12:00,
2013-03-14 16:22:00,56.0,35.0,-100.00,South,180,7.0,9.0,46,-99.99,,,-99.99,,2013-03-14 23:22:00,
2013-03-14 16:32:00,56.0,35.0,-100.00,SW,225,9.0,12.0,46,-99.99,,,-99.99,,2013-03-14 23:32:00,
2013-03-14 16:53:00,56.0,35.0,-100.00,South,180,9.0,13.0,46,-99.99,,,-99.99,,2013-03-14 23:53:00,
2013-03-14 17:02:00,56.0,36.0,-100.00,South,180,6.0,9.0,46,-99.99,,,-99.99,,2013-03-15 00:02:00,
2013-03-14 17:22:00,57.0,36.0,-100.00,South,180,10.0,11.0,45,-99.99,,,-99.99,,2013-03-15 00:22:00,
2013-03-14 17:32:00,57.0,36.0,-100.00,South,180,7.0,9.0,45,-99.99,,,-99.99,,2013-03-15 00:32:00,
2013-03-14 17:52:00,57.0,36.0,-100.00,South,180,8.0,14.0,45,-99.99,,,-99.99,,2013-03-15 00:52:00,
2013-03-14 18:02:00,56.0,36.0,-100.00,South,180,4.0,8.0,46,-99.99,,,-99.99,,2013-03-15 01:02:00,
2013-03-14 18:22:00,55.0,36.0,-100.00,South,180,6.0,9.0,47,-99.99,,,-99.99,,2013-03-15 01:22:00,
2013-03-14 18:32:00,55.0,36.0,-100.00,South,180,4.0,6.0,49,-99.99,,,-99.99,,2013-03-15 01:32:00,
2013-03-14 18:52:00,55.0,36.0,-100.00,SW,225,3.0,6.0,50,-99.99,,,-99.99,,2013-03-15 01:52:00,
2013-03-14 19:02:00,54.0,37.0,-100.00,South,180,4.0,4.0,51,-99.99,,,-99.99,,2013-03-15 02:02:00,
2013-03-14 19:22:00,54.0,37.0,-100.00,South,180,7.0,9.0,52,-99.99,,,-99.99,,2013-03-15 02:22:00,
2013-03-14 19:32:00,54.0,37.0,-100.00,South,180,8.0,9.0,53,-99.99,,,-99.99,,2013-03-15 02:32:00,
2013-03-14 19:52:00,54.0,38.0,-100.00,South,180,4.0,6.0,54,-99.99,,,-99.99,,2013-03-15 02:52:00,
2013-03-14 20:02:00,54.0,39.0,-100.00,South,180,5.0,8.0,57,-99.99,,,-99.99,,2013-03-15 03:02:00,
2013-03-14 20:12:00,54.0,39.0,-100.00,South,180,5.0,8.0,57,-99.99,,,-99.99,,2013-03-15 03:12:00,
2013-03-14 20:22:00,53.0,40.0,-100.00,SE,135,3.0,4.0,60,-99.99,,,-99.99,,2013-03-15 03:22:00,
2013-03-14 20:32:00,53.0,40.0,-100.00,South,180,4.0,6.0,62,-99.99,,,-99.99,,2013-03-15 03:32:00,
2013-03-14 20:42:00,53.0,40.0,-100.00,South,180,4.0,6.0,62,-99.99,,,-99.99,,2013-03-15 03:42:00,
2013-03-14 20:53:00,53.0,41.0,-100.00,South,180,3.0,4.0,64,-99.99,,,-99.99,,2013-03-15 03:53:00,
2013-03-14 21:03:00,53.0,41.0,-100.00,South,180,5.0,8.0,64,-99.99,,,-99.99,,2013-03-15 04:03:00,
2013-03-14 21:12:00,53.0,41.0,-100.00,South,180,5.0,8.0,64,-99.99,,,-99.99,,2013-03-15 04:12:00,
2013-03-14 21:22:00,53.0,41.0,-100.00,South,180,6.0,9.0,64,-99.99,,,-99.99,,2013-03-15 04:22:00,
2013-03-14 21:32:00,53.0,41.0,-100.00,South,180,3.0,5.0,65,-99.99,,,-99.99,,2013-03-15 04:32:00,
2013-03-14 21:42:00,53.0,41.0,-100.00,South,180,3.0,5.0,65,-99.99,,,-99.99,,2013-03-15 04:42:00,
2013-03-14 21:53:00,53.0,42.0,-100.00,South,180,2.0,3.0,66,-99.99,,,-99.99,,2013-03-15 04:53:00,
2013-03-14 22:02:00,53.0,42.0,-100.00,South,180,3.0,4.0,66,-99.99,,,-99.99,,2013-03-15 05:02:00,
2013-03-14 22:12:00,53.0,42.0,-100.00,South,180,3.0,4.0,66,-99.99,,,-99.99,,2013-03-15 05:12:00,
2013-03-14 22:22:00,53.0,42.0,-100.00,South,180,3.0,3.0,67,-99.99,,,-99.99,,2013-03-15 05:22:00,
2013-03-14 22:32:00,53.0,42.0,-100.00,South,180,1.0,2.0,68,-99.99,,,-99.99,,2013-03-15 05:32:00,
2013-03-14 22:42:00,53.0,42.0,-100.00,South,180,1.0,2.0,68,-99.99,,,-99.99,,2013-03-15 05:42:00,
2013-03-14 22:52:00,53.0,42.0,-100.00,SW,225,1.0,3.0,68,-99.99,,,-99.99,,2013-03-15 05:52:00,
2013-03-14 23:02:00,53.0,43.0,-100.00,South,180,2.0,3.0,69,-99.99,,,-99.99,,2013-03-15 06:02:00,
2013-03-14 23:12:00,53.0,43.0,-100.00,South,180,2.0,3.0,69,-99.99,,,-99.99,,2013-03-15 06:12:00,
2013-03-14 23:22:00,53.0,43.0,-100.00,South,180,2.0,3.0,69,-99.99,,,-99.99,,2013-03-15 06:22:00,
2013-03-14 23:32:00,53.0,43.0,-100.00,South,180,2.0,3.0,70,-99.99,,,-99.99,,2013-03-15 06:32:00,
2013-03-14 23:42:00,53.0,43.0,-100.00,South,180,2.0,3.0,70,-99.99,,,-99.99,,2013-03-15 06:42:00,
2013-03-14 23:53:00,53.0,44.0,-100.00,South,180,0.0,1.0,71,-99.99,,,-99.99,,2013-03-15 06:53:00,